sensor_id;sensor_type;location;lat;lon;timestamp;pressure;altitude;pressure_sealevel;temperature;humidity
70458;BME280;57919;56.194;95.716;2023-04-08T00:02:26;99213.47;;;-8.85;48.47
70458;BME280;57919;56.194;95.716;2023-04-08T00:12:28;99231.09;;;-8.26;48.04
70458;BME280;57919;56.194;95.716;2023-04-08T00:22:30;99227.28;;;-6.93;46.71
70458;BME280;57919;56.194;95.716;2023-04-08T00:32:32;99229.72;;;-6.37;45.07
70458;BME280;57919;56.194;95.716;2023-04-08T00:42:34;99235.25;;;-6.08;44.30
70458;BME280;57919;56.194;95.716;2023-04-08T00:52:35;99230.63;;;-5.60;42.71
70458;BME280;57919;56.194;95.716;2023-04-08T01:12:53;99256.41;;;-5.72;40.83
70458;BME280;57919;56.194;95.716;2023-04-08T01:23:24;99251.16;;;-5.00;40.53
70458;BME280;57919;56.194;95.716;2023-04-08T01:33:30;99248.41;;;-3.99;39.90
70458;BME280;57919;56.194;95.716;2023-04-08T01:43:32;99256.75;;;-3.54;39.11
70458;BME280;57919;56.194;95.716;2023-04-08T01:53:35;99258.13;;;-3.42;38.99
70458;BME280;57919;56.194;95.716;2023-04-08T02:03:40;99262.41;;;-3.38;38.02
70458;BME280;57919;56.194;95.716;2023-04-08T02:13:43;99266.59;;;-3.31;35.84
70458;BME280;57919;56.194;95.716;2023-04-08T02:24:07;99270.78;;;-3.24;35.52
70458;BME280;57919;56.194;95.716;2023-04-08T02:34:12;99280.16;;;-3.14;36.92
70458;BME280;57919;56.194;95.716;2023-04-08T02:44:15;99280.00;;;-1.37;35.15
70458;BME280;57919;56.194;95.716;2023-04-08T02:54:17;99270.13;;;-1.33;34.38
70458;BME280;57919;56.194;95.716;2023-04-08T03:04:19;99281.13;;;-1.20;32.36
70458;BME280;57919;56.194;95.716;2023-04-08T03:14:21;99272.09;;;0.67;34.48
70458;BME280;57919;56.194;95.716;2023-04-08T03:24:23;99279.09;;;1.58;33.17
70458;BME280;57919;56.194;95.716;2023-04-08T03:34:25;99265.69;;;2.28;33.17
70458;BME280;57919;56.194;95.716;2023-04-08T03:44:27;99268.88;;;2.83;32.36
70458;BME280;57919;56.194;95.716;2023-04-08T03:54:29;99262.38;;;3.34;32.51
70458;BME280;57919;56.194;95.716;2023-04-08T04:04:31;99254.97;;;3.23;30.98
70458;BME280;57919;56.194;95.716;2023-04-08T04:14:33;99262.81;;;2.64;31.68
70458;BME280;57919;56.194;95.716;2023-04-08T04:24:34;99248.16;;;2.06;29.62
70458;BME280;57919;56.194;95.716;2023-04-08T04:34:36;99238.09;;;2.11;31.10
70458;BME280;57919;56.194;95.716;2023-04-08T04:44:38;99233.78;;;2.42;27.16
70458;BME280;57919;56.194;95.716;2023-04-08T04:54:40;99223.97;;;2.74;29.39
70458;BME280;57919;56.194;95.716;2023-04-08T05:04:42;99209.94;;;3.62;29.23
70458;BME280;57919;56.194;95.716;2023-04-08T05:14:44;99208.66;;;3.97;26.91
70458;BME280;57919;56.194;95.716;2023-04-08T05:24:46;99205.81;;;3.26;29.54
70458;BME280;57919;56.194;95.716;2023-04-08T05:34:48;99194.56;;;3.35;29.15
70458;BME280;57919;56.194;95.716;2023-04-08T05:44:52;99187.78;;;3.74;29.67
70458;BME280;57919;56.194;95.716;2023-04-08T05:54:53;99187.38;;;2.44;29.86
70458;BME280;57919;56.194;95.716;2023-04-08T06:04:56;99165.81;;;2.79;30.39
70458;BME280;57919;56.194;95.716;2023-04-08T06:14:58;99142.47;;;3.42;29.97
70458;BME280;57919;56.194;95.716;2023-04-08T06:25:00;99139.72;;;3.86;28.93
70458;BME280;57919;56.194;95.716;2023-04-08T06:35:02;99122.00;;;2.97;29.12
70458;BME280;57919;56.194;95.716;2023-04-08T06:45:04;99106.44;;;3.34;29.21
70458;BME280;57919;56.194;95.716;2023-04-08T06:55:06;99090.66;;;1.92;28.54
70458;BME280;57919;56.194;95.716;2023-04-08T07:05:08;99072.56;;;1.66;29.81
70458;BME280;57919;56.194;95.716;2023-04-08T07:15:10;99041.78;;;1.91;30.36
70458;BME280;57919;56.194;95.716;2023-04-08T07:25:12;99026.56;;;2.09;29.34
70458;BME280;57919;56.194;95.716;2023-04-08T07:35:14;99016.66;;;1.15;30.48
70458;BME280;57919;56.194;95.716;2023-04-08T07:45:19;99002.22;;;0.86;32.00
70458;BME280;57919;56.194;95.716;2023-04-08T07:55:21;98986.84;;;1.24;32.51
70458;BME280;57919;56.194;95.716;2023-04-08T08:05:23;98969.88;;;1.74;32.51
70458;BME280;57919;56.194;95.716;2023-04-08T08:15:25;98958.16;;;1.92;32.11
70458;BME280;57919;56.194;95.716;2023-04-08T08:25:27;98938.75;;;1.75;32.21
70458;BME280;57919;56.194;95.716;2023-04-08T08:35:28;98917.66;;;2.16;31.32
70458;BME280;57919;56.194;95.716;2023-04-08T08:45:32;98916.28;;;2.24;30.41
70458;BME280;57919;56.194;95.716;2023-04-08T08:55:33;98905.41;;;2.28;30.89
70458;BME280;57919;56.194;95.716;2023-04-08T09:05:47;98892.22;;;2.10;31.11
70458;BME280;57919;56.194;95.716;2023-04-08T09:26:11;98867.13;;;1.53;31.39
70458;BME280;57919;56.194;95.716;2023-04-08T09:36:14;98850.97;;;1.24;31.57
70458;BME280;57919;56.194;95.716;2023-04-08T09:46:30;98839.56;;;1.07;31.91
70458;BME280;57919;56.194;95.716;2023-04-08T09:56:40;98822.47;;;0.95;31.58
70458;BME280;57919;56.194;95.716;2023-04-08T10:06:42;98812.56;;;0.66;31.93
70458;BME280;57919;56.194;95.716;2023-04-08T10:16:44;98791.25;;;0.50;32.08
70458;BME280;57919;56.194;95.716;2023-04-08T10:26:46;98773.38;;;0.36;32.32
70458;BME280;57919;56.194;95.716;2023-04-08T10:36:49;98765.03;;;0.26;32.96
70458;BME280;57919;56.194;95.716;2023-04-08T10:46:52;98738.34;;;0.28;32.93
70458;BME280;57919;56.194;95.716;2023-04-08T10:56:54;98730.16;;;0.15;33.27
70458;BME280;57919;56.194;95.716;2023-04-08T11:06:57;98712.63;;;-0.05;33.91
70458;BME280;57919;56.194;95.716;2023-04-08T11:16:59;98705.09;;;-0.29;34.41
70458;BME280;57919;56.194;95.716;2023-04-08T11:27:03;98686.88;;;-0.37;35.28
70458;BME280;57919;56.194;95.716;2023-04-08T11:37:07;98682.69;;;-0.58;35.57
70458;BME280;57919;56.194;95.716;2023-04-08T11:47:08;98663.97;;;-0.73;35.76
70458;BME280;57919;56.194;95.716;2023-04-08T11:57:11;98653.28;;;-0.88;35.55
70458;BME280;57919;56.194;95.716;2023-04-08T12:07:13;98635.63;;;-1.07;36.49
70458;BME280;57919;56.194;95.716;2023-04-08T12:17:14;98627.97;;;-1.30;36.87
70458;BME280;57919;56.194;95.716;2023-04-08T12:27:16;98621.50;;;-1.60;37.36
70458;BME280;57919;56.194;95.716;2023-04-08T12:37:18;98616.59;;;-1.87;38.00
70458;BME280;57919;56.194;95.716;2023-04-08T12:47:23;98604.53;;;-2.11;38.37
70458;BME280;57919;56.194;95.716;2023-04-08T12:57:25;98597.16;;;-2.23;39.94
70458;BME280;57919;56.194;95.716;2023-04-08T13:07:27;98588.75;;;-2.14;39.90
70458;BME280;57919;56.194;95.716;2023-04-08T13:17:29;98588.91;;;-2.55;40.13
70458;BME280;57919;56.194;95.716;2023-04-08T13:27:31;98572.34;;;-2.79;40.08
70458;BME280;57919;56.194;95.716;2023-04-08T13:37:34;98561.72;;;-2.98;41.05
70458;BME280;57919;56.194;95.716;2023-04-08T13:47:36;98565.75;;;-3.09;40.87
70458;BME280;57919;56.194;95.716;2023-04-08T13:57:39;98550.34;;;-3.20;41.58
70458;BME280;57919;56.194;95.716;2023-04-08T14:07:41;98542.75;;;-3.28;41.37
70458;BME280;57919;56.194;95.716;2023-04-08T14:17:43;98546.53;;;-3.33;41.46
70458;BME280;57919;56.194;95.716;2023-04-08T14:27:45;98541.44;;;-3.38;42.24
70458;BME280;57919;56.194;95.716;2023-04-08T14:37:48;98533.91;;;-3.47;41.95
70458;BME280;57919;56.194;95.716;2023-04-08T14:47:50;98530.13;;;-3.62;42.16
70458;BME280;57919;56.194;95.716;2023-04-08T14:57:52;98535.78;;;-3.71;42.64
70458;BME280;57919;56.194;95.716;2023-04-08T15:07:54;98528.13;;;-3.77;43.32
70458;BME280;57919;56.194;95.716;2023-04-08T15:17:56;98530.28;;;-3.86;43.55
70458;BME280;57919;56.194;95.716;2023-04-08T15:27:58;98525.25;;;-3.93;43.50
70458;BME280;57919;56.194;95.716;2023-04-08T15:38:00;98521.81;;;-3.95;43.68
70458;BME280;57919;56.194;95.716;2023-04-08T15:48:02;98518.56;;;-4.01;43.45
70458;BME280;57919;56.194;95.716;2023-04-08T15:58:04;98504.56;;;-4.03;44.43
70458;BME280;57919;56.194;95.716;2023-04-08T16:08:06;98494.38;;;-4.12;44.25
70458;BME280;57919;56.194;95.716;2023-04-08T16:18:27;98480.97;;;-4.08;44.86
70458;BME280;57919;56.194;95.716;2023-04-08T16:28:29;98474.84;;;-4.08;45.42
70458;BME280;57919;56.194;95.716;2023-04-08T16:38:31;98474.06;;;-4.10;45.74
70458;BME280;57919;56.194;95.716;2023-04-08T16:48:33;98468.47;;;-4.25;46.20
70458;BME280;57919;56.194;95.716;2023-04-08T16:58:35;98452.75;;;-4.71;48.01
70458;BME280;57919;56.194;95.716;2023-04-08T17:08:38;98440.53;;;-4.96;47.46
70458;BME280;57919;56.194;95.716;2023-04-08T17:18:43;98429.34;;;-5.02;47.72
70458;BME280;57919;56.194;95.716;2023-04-08T17:28:46;98422.56;;;-5.31;49.18
70458;BME280;57919;56.194;95.716;2023-04-08T17:38:48;98421.13;;;-5.16;49.54
70458;BME280;57919;56.194;95.716;2023-04-08T17:48:49;98413.25;;;-4.73;48.42
70458;BME280;57919;56.194;95.716;2023-04-08T17:58:51;98415.88;;;-4.51;47.57
70458;BME280;57919;56.194;95.716;2023-04-08T18:08:53;98406.19;;;-4.50;47.67
70458;BME280;57919;56.194;95.716;2023-04-08T18:18:55;98420.44;;;-4.54;48.28
70458;BME280;57919;56.194;95.716;2023-04-08T18:28:57;98424.78;;;-4.53;48.06
70458;BME280;57919;56.194;95.716;2023-04-08T18:39:00;98413.78;;;-4.43;47.62
70458;BME280;57919;56.194;95.716;2023-04-08T18:49:02;98401.47;;;-4.42;47.24
70458;BME280;57919;56.194;95.716;2023-04-08T18:59:04;98397.22;;;-4.46;47.39
70458;BME280;57919;56.194;95.716;2023-04-08T19:09:06;98408.09;;;-4.54;47.39
70458;BME280;57919;56.194;95.716;2023-04-08T19:19:08;98412.44;;;-4.53;46.53
70458;BME280;57919;56.194;95.716;2023-04-08T19:29:10;98419.56;;;-4.55;46.40
70458;BME280;57919;56.194;95.716;2023-04-08T19:39:12;98418.66;;;-4.54;45.71
70458;BME280;57919;56.194;95.716;2023-04-08T19:49:14;98409.19;;;-4.60;45.42
70458;BME280;57919;56.194;95.716;2023-04-08T19:59:15;98406.81;;;-4.66;45.53
70458;BME280;57919;56.194;95.716;2023-04-08T20:09:17;98399.88;;;-4.68;45.38
70458;BME280;57919;56.194;95.716;2023-04-08T20:19:19;98389.63;;;-4.76;45.78
70458;BME280;57919;56.194;95.716;2023-04-08T20:29:21;98384.59;;;-4.82;46.11
70458;BME280;57919;56.194;95.716;2023-04-08T20:39:23;98376.88;;;-4.86;46.03
70458;BME280;57919;56.194;95.716;2023-04-08T20:49:30;98370.44;;;-4.79;45.94
70458;BME280;57919;56.194;95.716;2023-04-08T20:59:31;98358.03;;;-4.56;45.59
70458;BME280;57919;56.194;95.716;2023-04-08T21:09:33;98340.75;;;-4.42;46.00
70458;BME280;57919;56.194;95.716;2023-04-08T21:19:35;98328.09;;;-4.34;45.58
70458;BME280;57919;56.194;95.716;2023-04-08T21:29:37;98320.09;;;-4.33;45.97
70458;BME280;57919;56.194;95.716;2023-04-08T21:39:39;98316.00;;;-4.40;45.71
70458;BME280;57919;56.194;95.716;2023-04-08T21:49:41;98314.88;;;-4.54;46.17
70458;BME280;57919;56.194;95.716;2023-04-08T21:59:43;98306.03;;;-4.53;46.63
70458;BME280;57919;56.194;95.716;2023-04-08T22:09:45;98302.63;;;-4.56;46.63
70458;BME280;57919;56.194;95.716;2023-04-08T22:19:47;98292.66;;;-4.49;47.45
70458;BME280;57919;56.194;95.716;2023-04-08T22:29:49;98283.94;;;-4.31;47.25
70458;BME280;57919;56.194;95.716;2023-04-08T22:39:51;98285.78;;;-4.12;46.75
70458;BME280;57919;56.194;95.716;2023-04-08T22:49:53;98282.53;;;-3.99;46.61
70458;BME280;57919;56.194;95.716;2023-04-08T22:59:55;98272.59;;;-3.94;47.00
70458;BME280;57919;56.194;95.716;2023-04-08T23:09:56;98272.41;;;-3.89;46.34
70458;BME280;57919;56.194;95.716;2023-04-08T23:19:58;98262.25;;;-3.79;46.88
70458;BME280;57919;56.194;95.716;2023-04-08T23:30:01;98270.41;;;-3.84;46.91
70458;BME280;57919;56.194;95.716;2023-04-08T23:40:06;98271.84;;;-3.77;48.21
70458;BME280;57919;56.194;95.716;2023-04-08T23:50:08;98267.97;;;-3.70;47.11
